createdAt,value
2022-11-08T00:03:12.792Z,12.08
2022-11-08T00:08:34.792Z,12.02
2022-11-08T00:13:55.522Z,11.96
2022-11-08T00:18:58.864Z,11.93
2022-11-08T00:24:03.366Z,11.86
2022-11-08T00:29:06.276Z,11.80
2022-11-08T00:34:09.443Z,11.74
2022-11-08T00:39:14.087Z,11.71
2022-11-08T00:44:17.519Z,11.67
2022-11-08T00:49:21.008Z,11.65
2022-11-08T00:54:25.806Z,11.61
2022-11-08T00:59:29.083Z,11.58
2022-11-08T01:04:32.450Z,11.57
2022-11-08T01:09:37.235Z,11.50
2022-11-08T01:14:40.569Z,11.49
2022-11-08T01:19:43.729Z,11.49
2022-11-08T01:24:48.215Z,11.47
2022-11-08T01:29:51.260Z,11.45
2022-11-08T01:34:54.318Z,11.46
2022-11-08T01:39:58.787Z,11.45
2022-11-08T01:45:03.255Z,11.46
2022-11-08T01:50:15.576Z,11.46
2022-11-08T01:55:24.083Z,11.47
2022-11-08T02:00:27.780Z,11.47
2022-11-08T02:05:32.580Z,11.49
2022-11-08T02:10:40.143Z,11.52
2022-11-08T02:15:43.729Z,11.49
2022-11-08T02:20:56.382Z,11.49
2022-11-08T02:26:00.853Z,11.48
2022-11-08T02:31:04.031Z,11.46
2022-11-08T02:36:09.065Z,11.46
2022-11-08T02:41:13.978Z,11.45
2022-11-08T02:46:17.054Z,11.41
2022-11-08T02:51:20.269Z,11.42
2022-11-08T02:56:24.937Z,11.39
2022-11-08T03:01:28.182Z,11.39
2022-11-08T03:06:31.189Z,11.39
2022-11-08T03:11:35.635Z,11.35
2022-11-08T03:16:38.965Z,11.31
2022-11-08T03:21:42.258Z,11.28
2022-11-08T03:26:46.806Z,11.24
2022-11-08T03:31:49.789Z,11.22
2022-11-08T03:36:52.709Z,11.18
2022-11-08T03:41:57.388Z,11.14
2022-11-08T03:47:01.201Z,11.12
2022-11-08T03:52:04.484Z,11.09
2022-11-08T03:57:09.055Z,11.06
2022-11-08T04:02:12.173Z,11.05
2022-11-08T04:07:15.354Z,11.03
2022-11-08T04:12:37.827Z,10.98
2022-11-08T04:18:09.679Z,10.95
2022-11-08T04:23:12.943Z,10.92
2022-11-08T04:28:17.663Z,10.87
2022-11-08T04:33:21.179Z,10.85
2022-11-08T04:38:24.382Z,10.82
2022-11-08T04:43:28.912Z,10.79
2022-11-08T04:48:32.843Z,10.75
2022-11-08T04:53:36.311Z,10.73
2022-11-08T04:58:42.521Z,10.71
2022-11-08T05:03:47.334Z,10.69
2022-11-08T05:08:50.536Z,10.67
2022-11-08T05:13:55.540Z,10.64
2022-11-08T05:18:59.104Z,10.64
2022-11-08T05:24:02.842Z,10.62
2022-11-08T05:29:07.554Z,10.63
2022-11-08T05:34:10.909Z,10.59
2022-11-08T05:39:13.985Z,10.59
2022-11-08T05:44:18.728Z,10.58
2022-11-08T05:49:21.797Z,10.58
2022-11-08T05:54:25.014Z,10.60
2022-11-08T05:59:29.803Z,10.57
2022-11-08T06:04:32.989Z,10.55
2022-11-08T06:09:36.029Z,10.54
2022-11-08T06:14:40.395Z,10.54
2022-11-08T06:19:43.505Z,10.50
2022-11-08T06:24:46.654Z,10.49
2022-11-08T06:29:51.281Z,10.44
2022-11-08T06:34:54.505Z,10.41
2022-11-08T06:39:59.046Z,10.39
2022-11-08T06:45:03.647Z,10.32
2022-11-08T06:50:08.125Z,10.31
2022-11-08T06:55:11.301Z,10.37
2022-11-08T07:00:17.420Z,10.38
2022-11-08T07:05:20.861Z,10.33
2022-11-08T07:10:26.150Z,10.37
2022-11-08T07:15:31.682Z,10.37
2022-11-08T07:20:35.470Z,10.41
2022-11-08T07:25:38.932Z,10.48
2022-11-08T07:30:43.640Z,10.64
2022-11-08T07:35:48.402Z,10.84
2022-11-08T07:40:51.673Z,11.06
2022-11-08T07:45:57.892Z,11.20
2022-11-08T07:51:00.919Z,11.35
2022-11-08T07:56:04.332Z,11.45
2022-11-08T08:01:09.221Z,11.58
2022-11-08T08:06:12.504Z,11.71
2022-11-08T08:11:15.757Z,11.80
2022-11-08T08:16:20.560Z,11.88
2022-11-08T08:21:23.785Z,11.97
2022-11-08T08:26:27.066Z,12.01
2022-11-08T08:31:31.485Z,12.10
2022-11-08T08:36:34.561Z,12.16
2022-11-08T08:41:37.820Z,12.21
2022-11-08T08:46:42.232Z,12.31
2022-11-08T08:51:45.219Z,12.44
2022-11-08T08:56:48.289Z,12.51
2022-11-08T09:01:52.719Z,12.54
2022-11-08T09:06:56.417Z,12.58
2022-11-08T09:11:59.451Z,12.61
2022-11-08T09:17:05.488Z,12.76
2022-11-08T09:22:08.753Z,12.71
2022-11-08T09:27:12.214Z,12.81
2022-11-08T09:32:21.661Z,12.93
2022-11-08T09:37:36.286Z,13.07
2022-11-08T09:42:52.089Z,13.26
2022-11-08T09:48:04.860Z,13.40
2022-11-08T09:53:16.664Z,13.44
2022-11-08T09:58:25.113Z,13.52
2022-11-08T10:03:30.833Z,13.62
2022-11-08T10:08:41.274Z,13.76
2022-11-08T10:13:56.834Z,13.86
2022-11-08T10:19:15.877Z,13.82
2022-11-08T10:24:28.107Z,13.76
2022-11-08T10:29:36.508Z,13.74
2022-11-08T10:34:48.868Z,13.77
2022-11-08T10:39:56.772Z,13.80
2022-11-08T10:45:00.413Z,13.88
2022-11-08T10:50:15.021Z,13.97
2022-11-08T10:55:27.656Z,14.01
2022-11-08T11:00:33.295Z,14.11
2022-11-08T11:05:41.882Z,14.18
2022-11-08T11:10:46.987Z,14.14
2022-11-08T11:15:52.085Z,14.25
2022-11-08T11:21:02.182Z,14.32
2022-11-08T11:26:06.924Z,14.49
2022-11-08T11:31:18.192Z,14.62
2022-11-08T11:36:26.133Z,14.72
2022-11-08T11:41:36.366Z,14.92
2022-11-08T11:46:48.689Z,14.98
2022-11-08T11:51:55.084Z,15.31
2022-11-08T11:57:02.662Z,15.44
2022-11-08T12:02:34.624Z,15.53
2022-11-08T12:07:46.743Z,15.60
2022-11-08T12:13:03.139Z,15.76
2022-11-08T12:18:41.616Z,15.66
2022-11-08T12:24:10.251Z,15.66
2022-11-08T12:29:24.817Z,15.69
2022-11-08T12:34:35.821Z,15.64
2022-11-08T12:39:47.138Z,15.66
2022-11-08T12:45:23.209Z,15.65
2022-11-08T12:50:33.117Z,15.76
2022-11-08T12:55:38.775Z,16.02
2022-11-08T13:00:44.557Z,15.99
2022-11-08T13:05:57.991Z,15.98
2022-11-08T13:11:07.417Z,16.04
2022-11-08T13:16:15.846Z,16.08
2022-11-08T13:21:38.464Z,16.15
2022-11-08T13:26:43.857Z,16.24
2022-11-08T13:31:53.713Z,16.28
2022-11-08T13:37:22.873Z,16.38
2022-11-08T13:42:39.152Z,16.45
2022-11-08T13:47:54.647Z,16.35
2022-11-08T13:53:04.649Z,16.14
2022-11-08T13:58:30.768Z,16.04
2022-11-08T14:03:56.222Z,16.01
2022-11-08T14:09:09.213Z,15.98
2022-11-08T14:14:35.039Z,15.91
2022-11-08T14:19:40.200Z,15.86
2022-11-08T14:24:44.633Z,15.85
2022-11-08T14:30:00.107Z,15.82
2022-11-08T14:35:14.867Z,15.79
2022-11-08T14:40:23.434Z,15.75
2022-11-08T14:45:30.683Z,15.73
2022-11-08T14:50:35.907Z,15.66
2022-11-08T14:55:39.248Z,15.62
2022-11-08T15:00:45.275Z,15.59
2022-11-08T15:05:55.711Z,15.64
2022-11-08T15:11:01.740Z,15.68
2022-11-08T15:16:07.937Z,15.67
2022-11-08T15:21:27.549Z,15.72
2022-11-08T15:26:34.898Z,15.65
2022-11-08T15:31:43.417Z,15.49
2022-11-08T15:36:46.653Z,15.31
2022-11-08T15:42:01.015Z,15.15
2022-11-08T15:47:08.541Z,14.99
2022-11-08T15:52:11.943Z,14.85
2022-11-08T15:57:15.196Z,14.71
2022-11-08T16:02:26.592Z,14.59
2022-11-08T16:07:29.565Z,14.46
2022-11-08T16:12:32.927Z,14.35
2022-11-08T16:17:37.907Z,14.38
2022-11-08T16:22:41.375Z,14.40
2022-11-08T16:27:44.470Z,14.38
2022-11-08T16:32:49.500Z,14.33
2022-11-08T16:37:53.707Z,14.14
2022-11-08T16:42:56.835Z,14.06
2022-11-08T16:48:01.442Z,14.08
2022-11-08T16:53:04.550Z,14.02
2022-11-08T16:58:07.551Z,13.96
2022-11-08T17:03:21.140Z,13.95
2022-11-08T17:08:25.189Z,13.91
2022-11-08T17:13:28.291Z,13.79
2022-11-08T17:18:32.726Z,13.72
2022-11-08T17:23:35.865Z,13.66
2022-11-08T17:28:39.457Z,13.64
2022-11-08T17:33:44.767Z,13.55
2022-11-08T17:38:47.969Z,13.55
2022-11-08T17:43:51.260Z,13.51
2022-11-08T17:48:55.979Z,13.49
2022-11-08T17:53:58.986Z,13.47
2022-11-08T17:59:03.135Z,13.47
2022-11-08T18:04:07.587Z,13.57
2022-11-08T18:09:11.028Z,13.59
2022-11-08T18:14:14.322Z,13.54
2022-11-08T18:19:19.068Z,13.46
2022-11-08T18:24:22.579Z,13.44
2022-11-08T18:29:25.573Z,13.41
2022-11-08T18:34:30.291Z,13.41
2022-11-08T18:39:33.527Z,13.43
2022-11-08T18:44:36.727Z,13.43
2022-11-08T18:49:41.209Z,13.40
2022-11-08T18:54:45.393Z,13.35
2022-11-08T18:59:48.669Z,13.30
2022-11-08T19:04:53.022Z,13.25
2022-11-08T19:09:56.274Z,13.18
2022-11-08T19:14:59.927Z,13.16
2022-11-08T19:20:04.838Z,13.15
2022-11-08T19:25:09.191Z,13.10
2022-11-08T19:30:13.395Z,13.07
2022-11-08T19:35:17.985Z,13.05
2022-11-08T19:40:21.084Z,13.00
2022-11-08T19:45:24.179Z,13.00
2022-11-08T19:50:28.799Z,12.94
2022-11-08T19:55:32.015Z,12.95
2022-11-08T20:00:35.218Z,12.93
2022-11-08T20:05:39.592Z,12.90
2022-11-08T20:10:42.833Z,12.87
2022-11-08T20:15:46.003Z,12.84
2022-11-08T20:20:50.769Z,12.82
2022-11-08T20:25:53.720Z,12.80
2022-11-08T20:31:03.489Z,12.79
2022-11-08T20:36:10.090Z,12.72
2022-11-08T20:41:15.156Z,12.72
2022-11-08T20:46:20.245Z,12.68
2022-11-08T20:51:24.836Z,12.63
2022-11-08T20:56:29.207Z,12.60
2022-11-08T21:01:34.621Z,12.63
2022-11-08T21:06:39.589Z,12.68
2022-11-08T21:11:42.656Z,12.64
2022-11-08T21:17:07.215Z,12.60
2022-11-08T21:22:16.473Z,12.56
2022-11-08T21:27:19.527Z,12.50
2022-11-08T21:32:22.541Z,12.47
2022-11-08T21:37:27.008Z,12.44
2022-11-08T21:42:30.867Z,12.41
2022-11-08T21:47:36.457Z,12.39
2022-11-08T21:52:41.077Z,12.36
2022-11-08T21:57:45.473Z,12.38
2022-11-08T22:02:48.560Z,12.38
2022-11-08T22:07:53.183Z,12.38
2022-11-08T22:12:56.421Z,12.38
2022-11-08T22:18:16.390Z,12.41
2022-11-08T22:23:24.061Z,12.41
2022-11-08T22:28:27.424Z,12.45
2022-11-08T22:33:30.761Z,12.50
2022-11-08T22:38:35.087Z,12.56
2022-11-08T22:43:38.452Z,12.58
2022-11-08T22:48:42.189Z,12.65
2022-11-08T22:53:46.678Z,12.71
2022-11-08T22:58:49.818Z,12.83
2022-11-08T23:03:52.881Z,12.89
2022-11-08T23:08:57.720Z,12.98
2022-11-08T23:14:17.952Z,13.09
2022-11-08T23:19:40.128Z,13.13
2022-11-08T23:24:45.136Z,13.14
2022-11-08T23:30:06.118Z,13.17
2022-11-08T23:35:09.897Z,13.12
2022-11-08T23:40:33.477Z,13.12
2022-11-08T23:45:36.500Z,13.14
2022-11-08T23:50:39.851Z,13.11
2022-11-08T23:55:44.634Z,13.07
